Flight Track Log - Related Links

Times and Time Zones

All times are in EDT time to prevent confusion due to time zone crossing. See the CSZ9593 flight status page for this flight to view local times or setup timezone preferences in your user account.

Time Position Orientation Groundspeed Altitude Reporting Facility
EDT Latitude Longitude Course Direction KTS MPH feet Rate Location/Type
Sat 08:39:00 PM 22.6172 108.5824 89° East  Level Estimated
Sat 08:40:00 PM 22.6192 108.6849 89° East  Level Estimated
Sat 08:41:00 PM 22.6213 108.7874 89° East  Level Estimated
Sat 08:42:00 PM 22.6232 108.8899 89° East  Level Estimated
Sat 08:43:00 PM 22.6251 108.9924 89° East  Level Estimated
Sat 08:44:00 PM 22.6269 109.0949 89° East  Level Estimated
Sat 08:45:00 PM 22.6286 109.1974 89° East  Level Estimated
Sat 08:46:00 PM 22.6303 109.2999 89° East  Level Estimated
Sat 08:47:00 PM 22.6319 109.4024 89° East  Level Estimated
Sat 08:48:00 PM 22.6334 109.5049 89° East  Level Estimated
Sat 08:49:00 PM 22.6349 109.6074 89° East  Level Estimated
Sat 08:50:00 PM 22.6363 109.7100 89° East  Level Estimated
Sat 08:51:00 PM 22.6377 109.8125 89° East  Level Estimated
Sat 08:52:00 PM 22.6390 109.9150 89° East  Level Estimated
Sat 08:53:00 PM 22.6402 110.0175 89° East  Level Estimated
Sat 08:54:00 PM 22.6413 110.1200 89° East  Level Estimated
Sat 08:55:00 PM 22.6424 110.2226 89° East  Level Estimated
Sat 08:56:00 PM 22.6435 110.3251 89° East  Level Estimated
Sat 08:57:00 PM 22.6444 110.4276 89° East  Level Estimated
Sat 08:58:00 PM 22.6453 110.5302 89° East  Level Estimated
Sat 08:59:00 PM 22.6461 110.6327 89° East  Level Estimated
Sat 09:00:00 PM 22.6469 110.7352 90° East  Level Estimated
Sat 09:01:00 PM 22.6476 110.8378 90° East  Level Estimated
Sat 09:02:00 PM 22.6482 110.9403 90° East  Level Estimated
Sat 09:03:00 PM 22.6488 111.0428 90° East  Level Estimated
Sat 09:04:00 PM 22.6493 111.1454 90° East  Level Estimated
Sat 09:05:00 PM 22.6497 111.2479 90° East  Level Estimated
Sat 09:06:00 PM 22.6501 111.3505 90° East  Level Estimated
Sat 09:07:00 PM 22.6504 111.4530 90° East  Level Estimated
Sat 09:08:00 PM 22.6507 111.5555 90° East  Level Estimated
Sat 09:09:00 PM 22.6508 111.6581 90° East  Level Estimated
Sat 09:10:00 PM 22.6509 111.7606 90° East  Level Estimated
Sat 09:11:00 PM 22.6510 111.8632 90° East  Level Estimated
Sat 09:12:00 PM 22.6510 111.9657 90° East  Level Estimated
Sat 09:13:00 PM 22.6509 112.0682 90° East  Level Estimated
Sat 09:14:00 PM 22.6507 112.1708 90° East  Level Estimated
Sat 09:15:00 PM 22.6505 112.2733 90° East  Level Estimated
Sat 09:16:00 PM 22.6502 112.3759 90° East  Level Estimated
Sat 09:17:00 PM 22.6499 112.4784 90° East  Level Estimated
Sat 09:18:00 PM 22.6495 112.5809 90° East  Level Estimated
Sat 09:19:00 PM 22.6490 112.6835 90° East  Level Estimated
Sat 09:20:00 PM 22.6485 112.7860 90° East  Level Estimated
Sat 09:21:00 PM 22.6479 112.8886 90° East  Level Estimated
Sat 09:22:00 PM 22.6472 112.9911 90° East  Level Estimated
Sat 09:23:00 PM 22.6465 113.0936 90° East  Level Estimated
Sat 09:24:00 PM 22.6457 113.1962 90° East  Level Estimated
Sat 09:25:00 PM 22.6448 113.2987 91° East  Level Estimated
Sat 09:26:00 PM 22.6439 113.4012 91° East  Level Estimated
Sat 09:27:00 PM 22.6429 113.5038 91° East  Level Estimated
Sat 09:28:00 PM 22.6418 113.6063 91° East  Level Estimated
Sat 09:29:00 PM 22.6407 113.7088 91° East  Level Estimated
Sat 09:30:00 PM 22.6395 113.8113 91° East  Level Estimated
Sat 09:31:00 PM 22.6395 113.8124 91° East  Level Estimated
Sat 09:32:00 PM 22.6395 113.8124 North  Level Estimated
Sat 09:33:00 PM 22.6395 113.8124 North  Level Estimated
Sat 09:34:00 PM 22.6395 113.8124 North  Level Estimated
Sat 09:35:00 PM 22.6395 113.8124 North  Level Estimated
Sat 09:36:00 PM 22.6395 113.8124 North  Level Estimated
Sat 09:37:00 PM 22.6395 113.8124 North  Level Estimated
Sat 09:38:00 PM 22.6395 113.8124 North  Level Estimated

Login

Don't have an account? Register now (free) for customized features, flight alerts, and more!